Text Box: All records at near 07:00 local time
Kleivo 1 weather for Mar 2007
Month no. 4
Obs.
Da.
Temp. Dew Point Precip. Wind
Speed
Wind gusts Cloud cover Press. Humidity Wind dir. Sunny OPT
01.03.2007 5,9   4,3 0,0   1 976,9 65,0     60,0 %
02.03.2007 1,9   0,0 0,0   1 989,4 93,0     57,5 %
03.03.2007 1,3   1,5 0,0   1 999,5 89,0     57,5 %
04.03.2007 3,3   10,1 4,8   8 1007,7 90,0 157,5 1 67,5 %
05.03.2007 7,8   1,0 0,0   8 1002,3 56,0   1 82,5 %
06.03.2007 6,3   1,3 0,0   1 995,1 64,0     62,5 %
07.03.2007 5,7   4,1 9,7   1 995,8 86,0 0,0   55,0 %
08.03.2007 4,0   5,6 15,0   1 1009,0 93,0 135,0   47,5 %
09.03.2007 3,8   4,7 2,7   0 1007,0 97,0 0,0   55,0 %
10.03.2007 4,7   16,8 0,0   1 1016,5 91,0     47,5 %
11.03.2007 7,0   38,6 9,7   1 1015,8 96,0 135,0   32,5 %
12.03.2007 5,9   29,6 0,0   6 1014,1 96,0   1 52,5 %
13.03.2007 5,2   29,8 9,7   2 1019,2 94,0 157,5   37,5 %
14.03.2007 5,5   5,5 0,0   1 1025,3 92,0     60,0 %
15.03.2007 5,6   37,4 0,0   7 1020,5 97,0   1 52,5 %
16.03.2007 4,5   21,8 0,0   1 1014,4 87,0     42,5 %
17.03.2007 2,8   30,7 0,0   4 1000,2 75,0   1 42,5 %
18.03.2007 3,1   11,9 0,0   3 970,1 77,0   1 57,5 %
19.03.2007 1,6   8,7 6,4   1 974,2 83,0 337,5   50,0 %
20.03.2007 2,1   0,9 0,0   1 994,1 81,0     57,5 %
21.03.2007 -3,1   0,0 0,0   8 1017,2 91,0   1 70,0 %
22.03.2007 2,8   0,0 0,0   10 1015,5 69,0   1 82,5 %
23.03.2007 1,6   0,0 0,0   10 1023,9 85,0   1 80,0 %
24.03.2007 1,3   0,0 3,2   10 1029,3 91,0 0,0 1 80,0 %
25.03.2007 1,3   0,0 0,0   10 1032,1 81,0   1 80,0 %
26.03.2007 0,1   0,0 0,0   10 1033,7 86,0   1 80,0 %
27.03.2007 4,1   0,0 0,0   10 1029,7 58,0   1 82,5 %
28.03.2007 1,6   0,0 0,0   10 1024,6 84,0   1 80,0 %
29.03.2007 8,9   0,0 0,0   10 1018,2 42,0   1 87,5 %
30.03.2007 1,7   0,0 0,0   10 1019,5 76,0   1 80,0 %
31.03.2007 -1,4   0,0 0,0   10 1027,0 92,0   1 77,5 %
Avrg/Sum 3,4   264,3 2,0   5,1 1010,3 82,5 115,3 17 63,1 %